Time;durP1;ratioP1;P1;durP2;ratioP2;P2;SDS_P1;SDS_P2;PMS_P1;PMS_P2;Temp;Humidity;BMP_temperature;BMP_pressure;BME280_temperature;BME280_humidity;BME280_pressure;Samples;Min_cycle;Max_cycle;Signal;HPM_P1;HPM_P2
2022/01/20 00:03:18;;;;;;;5.40;0.93;;;;;;;3.43;99.11;102016.38;4948478;29;20031;-80
2022/01/20 00:27:22;;;;;;;10.18;0.77;;;;;;;3.27;100.00;101993.63;4914590;29;20090;-80
2022/01/20 00:30:41;;;;;;;5.07;0.60;;;;;;;3.25;100.00;102003.28;4919160;28;20046;-80
2022/01/20 00:37:30;;;;;;;11.75;1.00;;;;;;;3.16;100.00;101989.84;4941029;29;20035;-80
2022/01/20 00:39:56;;;;;;;5.38;1.92;;;;;;;3.34;100.00;102011.59;4948029;28;20538;-80
2022/01/20 00:42:22;;;;;;;8.32;1.20;;;;;;;3.38;100.00;102011.38;4937066;29;20032;-81
2022/01/20 00:44:47;;;;;;;6.38;0.98;;;;;;;3.25;100.00;101992.84;4934201;29;20032;-80
2022/01/20 00:47:15;;;;;;;8.55;1.05;;;;;;;3.15;100.00;101975.97;4939629;29;20509;-82
2022/01/20 00:49:42;;;;;;;2.97;0.82;;;;;;;3.30;100.00;102006.53;4940977;29;20383;-80
2022/01/20 00:52:08;;;;;;;7.13;0.70;;;;;;;3.43;100.00;102037.25;4946573;29;20026;-81
2022/01/20 00:54:35;;;;;;;3.75;0.98;;;;;;;3.44;100.00;102055.44;4943861;29;20112;-80
2022/01/20 00:57:00;;;;;;;6.38;1.02;;;;;;;3.42;100.00;102014.66;4935551;29;20027;-82
2022/01/20 00:59:29;;;;;;;8.68;1.13;;;;;;;3.40;100.00;102035.63;4918485;29;20127;-80
2022/01/20 01:01:56;;;;;;;4.55;1.00;;;;;;;3.33;100.00;102060.31;4931858;29;20024;-80
2022/01/20 01:04:21;;;;;;;3.97;0.90;;;;;;;3.09;100.00;102031.03;4930812;29;20486;-82
2022/01/20 01:09:18;;;;;;;2.25;1.08;;;;;;;2.85;100.00;102007.81;4926662;29;20495;-82
2022/01/20 01:11:46;;;;;;;1.95;0.68;;;;;;;3.04;100.00;102048.66;4932382;29;20031;-80
2022/01/20 01:14:12;;;;;;;4.00;0.90;;;;;;;2.84;100.00;102029.56;4946504;29;20047;-80
2022/01/20 01:24:42;;;;;;;1.25;0.65;;;;;;;2.80;100.00;102028.00;4944362;29;20039;-80
2022/01/20 01:27:10;;;;;;;4.88;0.70;;;;;;;2.70;100.00;102020.69;4917696;29;20023;-80
2022/01/20 01:30:01;;;;;;;0.70;0.22;;;;;;;2.75;100.00;102035.22;4945042;29;20108;-80
2022/01/20 01:33:08;;;;;;;6.50;0.95;;;;;;;2.72;100.00;102034.50;4938583;29;20455;-80
2022/01/20 01:35:15;;;;;;;2.55;0.75;;;;;;;2.79;100.00;102033.31;4930825;29;20482;-81
2022/01/20 01:40:12;;;;;;;5.97;0.68;;;;;;;2.62;100.00;102034.09;4948604;29;20054;-80
2022/01/20 01:42:45;;;;;;;3.70;0.63;;;;;;;2.55;100.00;102037.84;4945201;29;20566;-81
2022/01/20 01:45:16;;;;;;;7.45;1.63;;;;;;;2.63;100.00;102065.28;4933247;29;20035;-80
2022/01/20 01:47:42;;;;;;;4.82;0.63;;;;;;;2.64;100.00;102064.38;4940503;29;20031;-80
2022/01/20 01:50:08;;;;;;;3.67;1.23;;;;;;;2.70;100.00;102068.47;4942868;29;20027;-80
2022/01/20 01:52:33;;;;;;;2.63;0.52;;;;;;;2.77;100.00;102069.03;4933976;29;20045;-80
2022/01/20 01:55:00;;;;;;;3.00;1.10;;;;;;;2.80;100.00;102081.94;4933761;29;20097;-80
2022/01/20 01:57:27;;;;;;;4.97;0.90;;;;;;;2.61;100.00;102058.44;4950380;29;20055;-80
2022/01/20 01:59:54;;;;;;;4.07;1.45;;;;;;;2.66;100.00;102072.13;4907017;29;20043;-80
2022/01/20 02:02:20;;;;;;;5.50;0.82;;;;;;;2.50;100.00;102050.25;4944568;28;20554;-82
2022/01/20 02:04:46;;;;;;;6.80;0.57;;;;;;;2.61;100.00;102110.56;4931082;29;20023;-80
2022/01/20 02:20:39;;;;;;;11.77;2.03;;;;;;;2.68;100.00;102109.41;4922753;29;20119;-80
2022/01/20 02:23:05;;;;;;;17.48;1.95;;;;;;;2.62;100.00;102100.09;4948141;29;20027;-80
2022/01/20 02:25:34;;;;;;;13.43;2.08;;;;;;;2.69;100.00;102113.69;4947672;29;20038;-80
2022/01/20 02:28:03;;;;;;;13.95;1.40;;;;;;;2.66;100.00;102100.81;4939246;29;20095;-80
2022/01/20 02:30:30;;;;;;;7.47;1.08;;;;;;;2.73;100.00;102110.03;4942140;29;20051;-80
2022/01/20 02:32:59;;;;;;;9.15;1.80;;;;;;;2.54;100.00;102104.78;4934488;29;20063;-80
2022/01/20 02:35:28;;;;;;;15.30;1.80;;;;;;;2.65;100.00;102128.59;4937316;29;20070;-80
2022/01/20 02:38:05;;;;;;;9.27;1.27;;;;;;;2.65;100.00;102117.34;4953691;29;20467;-80
2022/01/20 02:45:42;;;;;;;15.68;2.70;;;;;;;2.66;100.00;102119.06;4922108;29;20066;-80
2022/01/20 02:48:08;;;;;;;13.40;1.65;;;;;;;2.51;100.00;102089.28;4930810;29;20062;-81
2022/01/20 02:50:34;;;;;;;10.48;1.90;;;;;;;2.41;100.00;102129.69;4947616;28;20491;-80
2022/01/20 02:52:59;;;;;;;9.88;2.58;;;;;;;2.11;99.68;102084.94;4918772;29;20149;-79
2022/01/20 02:55:25;;;;;;;13.30;2.22;;;;;;;2.14;100.00;102142.13;4935520;29;20035;-80
2022/01/20 02:57:50;;;;;;;14.13;2.80;;;;;;;1.82;100.00;102115.63;4933651;29;20479;-82
2022/01/20 03:00:16;;;;;;;7.20;1.33;;;;;;;2.00;100.00;102153.97;4943227;29;20046;-81
2022/01/20 03:02:42;;;;;;;11.55;2.70;;;;;;;2.06;100.00;102138.06;4946342;29;20053;-82
2022/01/20 03:05:10;;;;;;;15.43;2.72;;;;;;;2.06;100.00;102145.88;4950669;29;20102;-79
2022/01/20 03:07:36;;;;;;;13.32;2.38;;;;;;;2.10;100.00;102157.03;4930365;29;20110;-81
2022/01/20 03:10:02;;;;;;;8.23;1.40;;;;;;;2.06;100.00;102140.66;4937176;29;20054;-82
2022/01/20 03:12:28;;;;;;;19.92;2.60;;;;;;;2.13;100.00;102132.59;4934386;29;20391;-82
2022/01/20 03:14:53;;;;;;;14.15;2.63;;;;;;;2.12;100.00;102128.31;4927893;29;20035;-81
2022/01/20 03:17:18;;;;;;;14.95;2.47;;;;;;;2.27;100.00;102164.16;4913734;29;20358;-81
2022/01/20 03:19:44;;;;;;;11.00;2.28;;;;;;;2.29;100.00;102149.31;4946698;29;20090;-81
2022/01/20 03:22:09;;;;;;;10.77;2.08;;;;;;;2.09;98.21;102133.63;4945765;29;20058;-80
2022/01/20 03:24:35;;;;;;;10.07;1.17;;;;;;;2.17;95.08;102137.63;4948211;29;20038;-81
2022/01/20 03:27:00;;;;;;;8.55;1.27;;;;;;;2.15;92.65;102146.41;4925979;29;20028;-81
2022/01/20 03:29:25;;;;;;;16.10;2.38;;;;;;;2.28;91.39;102159.78;4925056;29;20066;-81
2022/01/20 03:31:51;;;;;;;8.75;1.25;;;;;;;2.31;90.87;102154.41;4940056;29;20084;-81
2022/01/20 03:34:16;;;;;;;9.77;1.77;;;;;;;2.33;91.92;102148.25;4949976;29;20031;-81
2022/01/20 03:36:42;;;;;;;5.38;1.02;;;;;;;2.20;89.79;102136.63;4949415;29;20039;-81
2022/01/20 03:39:07;;;;;;;4.55;0.82;;;;;;;2.35;88.26;102163.81;4945887;29;20034;-81
2022/01/20 03:41:32;;;;;;;5.50;1.10;;;;;;;2.36;86.50;102168.97;4934709;29;20518;-81
2022/01/20 03:43:58;;;;;;;4.15;1.05;;;;;;;2.22;84.90;102171.28;4944902;29;20031;-81
2022/01/20 03:46:23;;;;;;;10.80;1.45;;;;;;;2.31;84.80;102181.34;4932810;29;20039;-80
2022/01/20 03:48:55;;;;;;;5.60;1.20;;;;;;;2.18;84.34;102156.72;4929234;29;20028;-81
2022/01/20 03:51:23;;;;;;;3.22;0.70;;;;;;;2.26;83.43;102178.06;4930535;29;20028;-81
2022/01/20 03:53:51;;;;;;;10.18;1.30;;;;;;;2.32;83.47;102175.22;4929225;29;20062;-81
2022/01/20 03:56:18;;;;;;;5.35;1.15;;;;;;;2.33;83.95;102179.53;4947498;29;20054;-81
2022/01/20 03:58:44;;;;;;;14.52;1.67;;;;;;;2.32;83.07;102183.03;4945484;29;20020;-81
2022/01/20 04:01:09;;;;;;;5.60;1.88;;;;;;;2.36;82.50;102173.34;4946498;29;20498;-81
2022/01/20 04:03:35;;;;;;;6.85;1.75;;;;;;;2.18;82.20;102151.50;4949826;29;20085;-81
2022/01/20 04:06:00;;;;;;;10.77;1.75;;;;;;;2.35;81.21;102195.06;4914974;29;20476;-81
2022/01/20 04:08:31;;;;;;;11.00;2.15;;;;;;;2.25;82.06;102181.59;4948470;29;20122;-81
2022/01/20 04:10:57;;;;;;;6.75;1.02;;;;;;;2.31;81.53;102176.13;4932642;29;20035;-81
2022/01/20 04:13:22;;;;;;;6.43;1.08;;;;;;;2.24;81.28;102172.06;4932374;29;20032;-81
2022/01/20 04:15:49;;;;;;;12.75;1.77;;;;;;;2.24;81.67;102185.97;4927529;29;20090;-81
2022/01/20 04:18:21;;;;;;;8.73;1.25;;;;;;;2.36;80.61;102184.59;4944911;29;20471;-81
2022/01/20 04:20:46;;;;;;;12.85;1.92;;;;;;;2.28;81.13;102181.44;4945962;29;20039;-81
2022/01/20 04:23:12;;;;;;;5.53;1.13;;;;;;;2.42;82.33;102215.63;4916733;29;20032;-81
2022/01/20 04:25:37;;;;;;;10.05;2.50;;;;;;;2.34;85.04;102216.84;4917084;29;20027;-81
2022/01/20 04:28:03;;;;;;;4.60;2.03;;;;;;;2.02;88.77;102185.97;4926582;29;20042;-81
2022/01/20 04:30:29;;;;;;;8.70;3.42;;;;;;;2.21;90.76;102203.47;4927212;29;20039;-81
2022/01/20 04:32:55;;;;;;;7.95;1.40;;;;;;;2.08;90.28;102195.28;4940961;29;20389;-80
2022/01/20 04:35:20;;;;;;;11.13;1.85;;;;;;;2.10;91.40;102213.47;4944202;29;20027;-80
2022/01/20 04:37:48;;;;;;;12.82;2.03;;;;;;;2.14;90.99;102217.66;4925718;29;20110;-80
2022/01/20 04:40:14;;;;;;;5.68;0.95;;;;;;;2.09;88.76;102237.81;4917553;29;20120;-80
2022/01/20 04:42:42;;;;;;;2.97;1.25;;;;;;;2.06;87.42;102218.78;4933425;29;20051;-80
2022/01/20 04:45:11;;;;;;;3.75;1.10;;;;;;;1.98;86.79;102220.88;4943398;29;20027;-80
2022/01/20 04:47:48;;;;;;;6.97;2.10;;;;;;;1.95;85.88;102215.78;4945069;29;20083;-80
2022/01/20 04:58:26;;;;;;;4.30;0.93;;;;;;;1.73;87.39;102205.34;4940579;29;20122;-82
2022/01/20 05:00:51;;;;;;;6.72;1.55;;;;;;;1.82;87.04;102233.63;4912235;29;20436;-81
2022/01/20 05:03:16;;;;;;;11.73;1.33;;;;;;;1.71;87.83;102228.00;4934174;29;20508;-81
2022/01/20 05:05:42;;;;;;;8.05;1.52;;;;;;;1.73;87.67;102231.38;4918111;29;20031;-80
2022/01/20 05:08:07;;;;;;;5.32;0.85;;;;;;;1.54;89.30;102215.59;4939487;28;20407;-80
2022/01/20 05:10:34;;;;;;;7.53;2.47;;;;;;;1.64;89.96;102227.38;4923028;29;20042;-80
2022/01/20 05:13:21;;;;;;;5.38;1.45;;;;;;;1.54;90.23;102220.81;4936476;29;20837;-81
2022/01/20 05:15:45;;;;;;;10.13;2.20;;;;;;;1.62;91.59;102234.38;4935658;29;20524;-80
2022/01/20 05:18:11;;;;;;;11.63;1.50;;;;;;;1.50;91.77;102239.19;4918574;29;20140;-81
2022/01/20 05:20:36;;;;;;;4.88;1.67;;;;;;;1.53;92.39;102250.34;4900047;29;20019;-80
2022/01/20 05:23:02;;;;;;;7.90;1.95;;;;;;;1.57;93.10;102288.38;4936729;29;20054;-81
2022/01/20 05:25:27;;;;;;;3.25;1.30;;;;;;;1.26;94.24;102257.41;4933765;29;20115;-81
2022/01/20 05:27:52;;;;;;;2.05;0.68;;;;;;;1.26;94.67;102283.41;4918016;29;20035;-80
2022/01/20 05:30:18;;;;;;;2.17;0.70;;;;;;;0.99;94.92;102264.44;4931804;29;20054;-81
2022/01/20 05:32:43;;;;;;;2.85;0.60;;;;;;;1.07;95.12;102266.75;4928810;29;20121;-81
2022/01/20 05:35:09;;;;;;;3.00;1.30;;;;;;;1.05;94.52;102274.63;4935042;28;20051;-80
2022/01/20 05:37:34;;;;;;;7.38;1.00;;;;;;;1.05;93.67;102274.63;4934927;28;20058;-80
2022/01/20 05:40:00;;;;;;;0.90;0.50;;;;;;;1.04;92.57;102262.53;4905011;29;20452;-80
2022/01/20 05:42:25;;;;;;;2.83;1.15;;;;;;;1.25;92.27;102294.72;4938022;28;20114;-81
2022/01/20 05:44:52;;;;;;;4.00;1.00;;;;;;;1.25;91.98;102291.28;4917745;29;20051;-80
2022/01/20 05:47:25;;;;;;;2.65;0.98;;;;;;;1.21;93.22;102275.78;4934789;29;20062;-81
2022/01/20 05:49:51;;;;;;;6.75;1.23;;;;;;;1.22;93.53;102282.69;4940662;29;20459;-80
2022/01/20 05:52:17;;;;;;;3.55;1.30;;;;;;;0.99;93.67;102251.44;4911568;29;20035;-80
2022/01/20 05:54:42;;;;;;;10.63;2.28;;;;;;;1.31;94.77;102291.06;4895988;29;20046;-80
2022/01/20 05:57:10;;;;;;;12.50;1.67;;;;;;;1.27;94.35;102268.69;4933998;29;20102;-80
2022/01/20 05:59:36;;;;;;;7.22;1.67;;;;;;;1.43;94.19;102275.00;4935134;28;20093;-80
2022/01/20 06:02:10;;;;;;;14.25;2.03;;;;;;;1.49;93.45;102280.00;4919894;29;20462;-80
2022/01/20 06:04:35;;;;;;;12.00;2.13;;;;;;;1.53;91.80;102275.53;4936600;29;20107;-81
2022/01/20 06:07:01;;;;;;;5.55;1.98;;;;;;;1.52;91.18;102290.28;4933017;29;20679;-80
2022/01/20 06:09:26;;;;;;;8.77;1.45;;;;;;;1.38;90.55;102267.38;4939623;29;20823;-80
2022/01/20 06:11:51;;;;;;;4.55;1.92;;;;;;;1.40;90.06;102283.78;4926805;29;20494;-80
2022/01/20 06:14:17;;;;;;;10.18;1.60;;;;;;;1.46;89.17;102295.72;4921652;29;20032;-80
2022/01/20 06:16:43;;;;;;;9.23;1.95;;;;;;;1.58;88.10;102305.66;4941791;29;20085;-80
2022/01/20 06:19:08;;;;;;;5.28;1.38;;;;;;;1.63;87.90;102308.09;4939321;29;20126;-80
2022/01/20 06:21:34;;;;;;;3.20;1.73;;;;;;;1.59;87.31;102296.09;4926536;29;20046;-80
2022/01/20 06:23:59;;;;;;;1.88;0.85;;;;;;;1.46;87.77;102282.72;4916398;29;20110;-80
2022/01/20 06:26:25;;;;;;;7.68;1.27;;;;;;;1.58;86.39;102310.03;4942703;28;20050;-80
2022/01/20 06:28:50;;;;;;;5.55;0.70;;;;;;;1.61;85.65;102325.53;4937958;28;20036;-82
2022/01/20 06:31:16;;;;;;;7.43;1.30;;;;;;;1.66;85.08;102321.03;4934997;29;20457;-80
2022/01/20 06:33:42;;;;;;;3.15;1.00;;;;;;;1.54;84.87;102291.06;4941450;29;20082;-80
2022/01/20 06:36:07;;;;;;;6.68;0.75;;;;;;;1.70;85.79;102326.94;4941805;28;20039;-80
2022/01/20 06:38:33;;;;;;;6.93;1.73;;;;;;;1.63;84.93;102313.31;4940480;28;20496;-80
2022/01/20 06:40:59;;;;;;;5.47;1.17;;;;;;;1.61;85.58;102309.91;4918378;29;20047;-81
2022/01/20 06:43:24;;;;;;;5.18;1.40;;;;;;;1.62;86.85;102333.28;4933570;29;20036;-80
2022/01/20 06:45:50;;;;;;;5.80;1.60;;;;;;;1.60;88.10;102355.91;4936783;29;20035;-80
2022/01/20 06:48:15;;;;;;;3.42;0.75;;;;;;;1.54;88.95;102358.72;4935616;29;20038;-80
2022/01/20 06:50:41;;;;;;;0.77;0.65;;;;;;;1.43;90.63;102356.50;4925689;29;20023;-80
2022/01/20 06:53:06;;;;;;;4.28;0.85;;;;;;;1.27;90.29;102347.53;4922134;29;20031;-80
2022/01/20 06:55:34;;;;;;;6.20;1.40;;;;;;;1.36;88.74;102372.41;4926602;29;20035;-80
2022/01/20 06:57:59;;;;;;;5.80;0.65;;;;;;;1.41;88.67;102368.72;4937888;29;20034;-81
2022/01/20 07:00:25;;;;;;;5.60;0.80;;;;;;;1.23;87.96;102346.78;4908133;29;20039;-81
2022/01/20 07:02:52;;;;;;;4.18;1.02;;;;;;;1.26;89.42;102353.63;4940171;29;20115;-81
2022/01/20 07:05:20;;;;;;;4.75;1.60;;;;;;;1.43;89.78;102385.13;4927914;29;20039;-80
2022/01/20 07:07:45;;;;;;;4.85;1.83;;;;;;;1.28;90.71;102377.84;4945221;29;20116;-80
2022/01/20 07:10:13;;;;;;;5.97;2.03;;;;;;;1.25;90.81;102369.31;4942615;29;20597;-80
2022/01/20 07:12:41;;;;;;;7.53;1.15;;;;;;;1.31;91.43;102380.34;4919069;29;20052;-80
2022/01/20 07:15:07;;;;;;;7.25;1.20;;;;;;;1.26;90.43;102371.84;4919961;29;20790;-80
2022/01/20 07:17:33;;;;;;;4.82;1.67;;;;;;;1.33;89.50;102388.09;4918041;29;20035;-80
2022/01/20 07:19:58;;;;;;;5.38;1.23;;;;;;;1.36;89.81;102388.00;4926689;29;20093;-80
2022/01/20 07:22:24;;;;;;;7.20;2.33;;;;;;;1.45;91.17;102418.91;4942078;29;20424;-80
2022/01/20 07:24:49;;;;;;;10.98;1.88;;;;;;;1.32;93.09;102428.03;4917709;29;20063;-84
2022/01/20 07:27:15;;;;;;;4.00;1.23;;;;;;;1.09;95.69;102411.44;4934097;29;20402;-80
2022/01/20 07:29:41;;;;;;;2.97;1.30;;;;;;;1.23;97.48;102430.03;4931079;29;20063;-81
2022/01/20 07:32:07;;;;;;;8.68;1.65;;;;;;;1.18;97.40;102431.09;4931807;29;20042;-80
2022/01/20 07:34:34;;;;;;;13.25;2.08;;;;;;;1.19;98.22;102424.97;4941013;29;20051;-81
2022/01/20 07:37:00;;;;;;;9.43;0.95;;;;;;;1.10;98.43;102420.94;4938154;28;20020;-80
2022/01/20 07:39:25;;;;;;;6.00;1.42;;;;;;;1.18;98.83;102442.34;4922233;29;20032;-81
2022/01/20 07:41:51;;;;;;;3.38;1.13;;;;;;;1.05;98.43;102414.19;4940667;29;20058;-81
2022/01/20 07:44:17;;;;;;;6.90;1.55;;;;;;;1.10;98.47;102441.72;4929696;29;20051;-80
2022/01/20 07:46:43;;;;;;;3.63;0.82;;;;;;;1.11;98.55;102445.16;4940444;29;20071;-80
2022/01/20 07:49:09;;;;;;;1.38;0.95;;;;;;;1.00;98.05;102442.91;4941900;29;20063;-81
2022/01/20 07:51:34;;;;;;;6.38;1.33;;;;;;;1.07;98.00;102449.63;4925732;29;20469;-81
2022/01/20 07:54:00;;;;;;;6.38;0.70;;;;;;;0.97;97.66;102433.47;4944015;28;20397;-81
2022/01/20 07:56:26;;;;;;;2.78;0.68;;;;;;;1.13;96.82;102451.19;4942474;29;20395;-81
2022/01/20 07:58:51;;;;;;;7.30;1.15;;;;;;;1.00;96.58;102422.13;4941887;29;20063;-83
2022/01/20 08:01:17;;;;;;;6.22;1.33;;;;;;;1.16;96.35;102454.53;4933083;29;20481;-82
2022/01/20 08:03:42;;;;;;;7.03;1.08;;;;;;;1.09;96.28;102432.25;4928513;29;20110;-82
2022/01/20 08:06:08;;;;;;;10.88;2.25;;;;;;;1.17;95.24;102444.97;4925578;29;20507;-82
2022/01/20 08:08:33;;;;;;;7.30;1.05;;;;;;;1.05;94.63;102414.19;4925471;29;20044;-82
2022/01/20 08:10:58;;;;;;;17.88;2.80;;;;;;;1.16;94.42;102422.50;4922976;29;20055;-81
2022/01/20 08:13:24;;;;;;;7.88;1.83;;;;;;;1.32;93.42;102433.22;4918236;29;20030;-81
2022/01/20 08:15:49;;;;;;;10.48;1.27;;;;;;;1.40;92.21;102428.63;4936649;29;20411;-82
2022/01/20 08:18:15;;;;;;;11.10;1.60;;;;;;;1.65;91.80;102444.22;4935976;29;20115;-82
2022/01/20 08:20:42;;;;;;;6.40;1.17;;;;;;;1.48;91.83;102403.19;4941439;29;20050;-84
2022/01/20 08:23:07;;;;;;;5.10;1.83;;;;;;;1.52;91.82;102415.19;4915856;29;20087;-82
2022/01/20 08:25:34;;;;;;;8.73;1.67;;;;;;;1.50;91.28;102418.75;4935904;29;20032;-81
2022/01/20 08:28:00;;;;;;;4.30;2.05;;;;;;;1.53;89.42;102431.66;4939498;29;20633;-81
2022/01/20 08:30:25;;;;;;;8.30;1.23;;;;;;;1.43;88.55;102421.53;4922831;29;20031;-81
2022/01/20 08:32:53;;;;;;;8.95;1.30;;;;;;;1.59;87.72;102428.81;4942575;29;20031;-81
2022/01/20 08:35:21;;;;;;;9.73;1.10;;;;;;;1.66;87.83;102450.31;4927707;29;20407;-81
2022/01/20 08:37:47;;;;;;;4.25;1.08;;;;;;;1.54;87.96;102418.56;4924516;28;20523;-81
2022/01/20 08:40:15;;;;;;;11.60;1.85;;;;;;;1.70;88.04;102444.06;4933567;29;20031;-81
2022/01/20 08:42:44;;;;;;;9.55;1.40;;;;;;;2.01;88.63;102447.28;4939872;29;20435;-81
2022/01/20 08:45:11;;;;;;;8.40;1.85;;;;;;;2.40;87.21;102471.94;4923098;29;20043;-81
2022/01/20 08:47:37;;;;;;;6.18;1.30;;;;;;;2.65;87.41;102471.84;4941528;28;20104;-81
2022/01/20 08:50:06;;;;;;;8.43;1.33;;;;;;;2.90;85.21;102477.00;4913954;29;20032;-81
2022/01/20 08:52:40;;;;;;;5.50;0.50;;;;;;;3.14;83.01;102475.16;5097695;27;20600;-75
2022/01/20 08:55:06;;;;;;;8.15;1.10;;;;;;;3.26;81.66;102472.03;5094513;28;20028;-75
2022/01/20 08:57:32;;;;;;;7.90;1.05;;;;;;;3.37;80.99;102481.19;5073448;28;20032;-75
2022/01/20 08:59:58;;;;;;;4.20;1.35;;;;;;;3.27;81.20;102471.13;5076387;28;20069;-75
2022/01/20 09:02:23;;;;;;;4.13;0.80;;;;;;;3.08;81.23;102460.59;5094191;28;20017;-75
2022/01/20 09:04:49;;;;;;;11.60;1.23;;;;;;;3.62;81.90;102471.44;5079839;28;20465;-75
2022/01/20 09:07:16;;;;;;;6.85;0.88;;;;;;;4.18;80.32;102469.00;5097066;28;20069;-75
2022/01/20 09:09:45;;;;;;;6.60;1.48;;;;;;;4.60;79.50;102465.38;5093855;28;20067;-76
2022/01/20 09:17:30;;;;;;;8.48;1.65;;;;;;;5.44;76.23;102484.00;5096952;28;20085;-75
2022/01/20 09:19:56;;;;;;;6.57;1.35;;;;;;;5.70;75.55;102480.06;5093221;28;20055;-76
2022/01/20 09:22:22;;;;;;;6.40;1.48;;;;;;;5.42;74.19;102480.63;5076526;28;20105;-75
2022/01/20 09:24:48;;;;;;;6.85;1.30;;;;;;;5.08;75.20;102492.75;5093029;28;20499;-76
2022/01/20 09:27:14;;;;;;;6.88;1.15;;;;;;;4.83;77.57;102499.13;5097564;28;20605;-75
2022/01/20 09:29:40;;;;;;;5.40;1.42;;;;;;;4.67;78.26;102487.72;5087007;28;20028;-76
2022/01/20 09:32:08;;;;;;;3.85;1.02;;;;;;;4.56;79.96;102500.44;5089205;28;20143;-75
2022/01/20 09:34:33;;;;;;;6.35;1.70;;;;;;;5.24;80.62;102506.78;5093542;28;20081;-75
2022/01/20 09:36:59;;;;;;;8.60;1.38;;;;;;;4.91;80.79;102512.69;5059321;28;20024;-75
2022/01/20 09:39:24;;;;;;;7.90;1.77;;;;;;;6.39;80.39;102490.44;5099990;28;20467;-76
2022/01/20 09:41:50;;;;;;;10.10;1.13;;;;;;;8.30;74.81;102502.31;5093250;28;20790;-76
2022/01/20 09:44:16;;;;;;;9.63;1.80;;;;;;;9.89;69.63;102499.00;5091991;28;20020;-75
2022/01/20 09:46:44;;;;;;;7.03;1.35;;;;;;;9.30;65.54;102509.13;5078852;28;20035;-75
2022/01/20 09:49:11;;;;;;;6.00;1.10;;;;;;;8.67;66.11;102523.69;5089535;28;20482;-75
2022/01/20 09:51:37;;;;;;;3.67;1.10;;;;;;;8.12;67.47;102520.91;5095234;28;20372;-75
2022/01/20 09:54:04;;;;;;;7.90;1.23;;;;;;;7.76;68.41;102532.66;5094630;28;20016;-75
2022/01/20 09:56:30;;;;;;;5.07;0.65;;;;;;;7.28;68.30;102538.97;5092259;28;20118;-75
2022/01/20 09:58:56;;;;;;;9.60;1.30;;;;;;;7.78;71.23;102540.47;5095361;28;20036;-75
2022/01/20 10:01:40;;;;;;;6.90;1.60;;;;;;;10.03;67.15;102521.78;5094171;28;20535;-75
2022/01/20 10:04:27;;;;;;;6.63;1.23;;;;;;;11.12;60.52;102527.31;5081602;28;20086;-75
2022/01/20 10:07:06;;;;;;;10.43;2.22;;;;;;;9.60;60.99;102533.47;5079583;28;20032;-75
2022/01/20 10:09:41;;;;;;;5.78;1.13;;;;;;;8.98;64.32;102539.25;5082126;28;20081;-75
2022/01/20 10:12:09;;;;;;;5.85;1.73;;;;;;;10.65;62.28;102519.22;5079706;28;20034;-75
2022/01/20 10:14:43;;;;;;;6.18;1.30;;;;;;;11.45;58.51;102554.84;5081060;28;20040;-76
2022/01/20 10:17:17;;;;;;;8.13;1.70;;;;;;;9.11;62.30;102560.38;5080018;28;20115;-76
2022/01/20 10:19:43;;;;;;;4.47;0.90;;;;;;;7.41;68.29;102548.69;5076442;28;20028;-75
2022/01/20 10:22:16;;;;;;;3.15;0.75;;;;;;;6.49;69.82;102553.75;5075090;28;20048;-75
2022/01/20 10:25:05;;;;;;;1.42;0.57;;;;;;;5.92;71.15;102553.19;5075122;28;20024;-75
2022/01/20 10:27:33;;;;;;;5.47;0.85;;;;;;;5.50;72.39;102504.66;5079123;28;20112;-75
2022/01/20 10:30:02;;;;;;;2.78;1.40;;;;;;;5.30;72.06;102550.16;5082973;28;20484;-75
2022/01/20 10:32:38;;;;;;;5.85;0.93;;;;;;;5.04;74.20;102546.16;5081106;28;20442;-75
2022/01/20 10:35:05;;;;;;;8.25;1.27;;;;;;;4.90;74.68;102558.13;5079610;28;20036;-75
2022/01/20 10:37:31;;;;;;;2.40;0.80;;;;;;;6.78;73.33;102574.97;5082287;28;20055;-75
2022/01/20 10:40:13;;;;;;;4.18;1.55;;;;;;;8.65;67.42;102564.13;5084753;28;20032;-75
2022/01/20 10:42:41;;;;;;;4.15;0.75;;;;;;;8.22;67.26;102550.94;5080066;28;20115;-75
2022/01/20 10:45:08;;;;;;;5.28;1.00;;;;;;;7.15;67.66;102565.91;5081684;28;20469;-75
2022/01/20 10:47:36;;;;;;;3.85;0.70;;;;;;;6.36;69.06;102542.22;5083026;28;20033;-75
2022/01/20 10:50:18;;;;;;;6.18;0.90;;;;;;;6.25;70.04;102578.63;5080621;28;20016;-75
2022/01/20 10:52:44;;;;;;;5.13;0.80;;;;;;;5.88;69.40;102572.59;5082855;28;20078;-75
2022/01/20 10:55:27;;;;;;;3.53;0.80;;;;;;;7.00;69.90;102585.97;5078982;28;20433;-75
2022/01/20 10:57:55;;;;;;;5.20;0.88;;;;;;;7.92;69.08;102566.75;5077820;28;20063;-75
2022/01/20 11:00:23;;;;;;;6.03;1.02;;;;;;;8.54;66.64;102574.47;5073591;28;20036;-75
2022/01/20 11:02:54;;;;;;;6.32;1.13;;;;;;;8.73;65.24;102570.69;5081423;28;20143;-75
2022/01/20 11:05:20;;;;;;;4.10;0.82;;;;;;;7.64;65.92;102543.88;5079014;28;20066;-75
2022/01/20 11:07:47;;;;;;;8.05;1.55;;;;;;;7.11;67.99;102579.31;5078519;28;20048;-75
2022/01/20 11:10:13;;;;;;;7.57;1.33;;;;;;;7.86;67.69;102561.03;5076362;28;20035;-76
2022/01/20 11:12:40;;;;;;;9.15;1.35;;;;;;;8.26;67.04;102563.94;5078851;28;20024;-75
2022/01/20 11:15:08;;;;;;;6.00;1.58;;;;;;;9.17;66.58;102575.81;5077236;28;20028;-75
2022/01/20 11:17:35;;;;;;;5.80;1.65;;;;;;;9.97;64.66;102569.69;5082241;28;20054;-75
2022/01/20 11:20:17;;;;;;;7.20;1.17;;;;;;;9.79;61.58;102566.50;5075873;28;20024;-75
2022/01/20 11:22:56;;;;;;;8.93;1.38;;;;;;;8.62;61.48;102564.34;5072306;28;20029;-76
2022/01/20 11:25:24;;;;;;;6.85;0.98;;;;;;;7.73;64.45;102559.13;5072517;28;20027;-75
2022/01/20 11:28:12;;;;;;;4.97;1.10;;;;;;;6.76;68.80;102555.81;5066863;28;20077;-75
2022/01/20 11:30:42;;;;;;;8.27;1.10;;;;;;;6.25;70.34;102547.16;5071015;28;20372;-75
2022/01/20 11:33:11;;;;;;;4.95;1.15;;;;;;;6.52;71.13;102548.34;5073375;28;20016;-75
2022/01/20 11:35:51;;;;;;;8.10;1.30;;;;;;;7.56;68.10;102535.63;5079360;28;20407;-74
2022/01/20 11:38:20;;;;;;;13.85;1.58;;;;;;;7.78;68.41;102530.78;5074526;28;20469;-74
2022/01/20 11:40:57;;;;;;;5.90;1.10;;;;;;;8.36;67.09;102541.34;5071942;28;20361;-75
2022/01/20 11:43:38;;;;;;;5.40;1.17;;;;;;;8.53;65.78;102558.78;5083287;28;20020;-75
2022/01/20 11:46:17;;;;;;;8.70;1.13;;;;;;;8.00;65.39;102555.81;5078749;28;20592;-75
2022/01/20 11:48:56;;;;;;;4.70;1.02;;;;;;;7.33;66.37;102571.91;5077474;28;20021;-75
2022/01/20 11:51:26;;;;;;;4.53;0.80;;;;;;;6.38;71.11;102561.34;5083353;28;20036;-75
2022/01/20 11:54:11;;;;;;;7.45;1.65;;;;;;;5.68;75.43;102545.66;5095592;28;20114;-75
2022/01/20 11:56:43;;;;;;;2.53;0.80;;;;;;;5.29;76.76;102525.75;5073981;28;20024;-75
2022/01/20 11:59:11;;;;;;;1.52;0.30;;;;;;;5.08;76.34;102545.09;5073775;28;20019;-76
2022/01/20 12:01:52;;;;;;;3.33;0.47;;;;;;;4.92;76.45;102555.41;5092796;28;20023;-75
2022/01/20 12:04:30;;;;;;;3.53;0.73;;;;;;;4.83;75.35;102559.28;5096160;28;20019;-75
2022/01/20 12:06:56;;;;;;;6.07;0.75;;;;;;;4.94;75.42;102556.19;5094494;28;20027;-75
2022/01/20 12:09:36;;;;;;;2.53;0.63;;;;;;;4.85;77.21;102549.63;5090359;28;20032;-75
2022/01/20 12:12:17;;;;;;;3.53;0.47;;;;;;;4.90;76.46;102554.63;5100988;28;20032;-75
2022/01/20 12:14:43;;;;;;;;;;;;;;;5.15;77.00;102559.56;5077070;28;20024;-75
2022/01/20 12:17:11;;;;;;;3.03;0.65;;;;;;;5.29;75.47;102565.00;5072710;28;20300;-75
2022/01/20 12:19:38;;;;;;;8.65;1.77;;;;;;;5.17;75.51;102564.75;5093451;28;20047;-75
2022/01/20 12:22:05;;;;;;;9.27;1.00;;;;;;;5.13;76.40;102569.25;5098716;28;20032;-75
2022/01/20 12:24:32;;;;;;;9.02;1.45;;;;;;;4.94;76.15;102559.69;5095102;28;20035;-75
2022/01/20 12:26:58;;;;;;;5.78;1.75;;;;;;;4.79;74.74;102565.63;5071295;28;20053;-75
2022/01/20 12:29:36;;;;;;;5.90;1.25;;;;;;;4.53;74.82;102538.88;5097772;28;20028;-75
2022/01/20 12:32:13;;;;;;;4.93;1.02;;;;;;;4.67;75.07;102560.94;5096051;28;20114;-75
2022/01/20 12:34:39;;;;;;;10.73;1.52;;;;;;;4.50;74.69;102554.69;5100992;28;20031;-75
2022/01/20 12:37:05;;;;;;;4.70;1.10;;;;;;;4.68;75.52;102565.22;5105678;28;20111;-75
2022/01/20 12:39:33;;;;;;;2.15;0.82;;;;;;;4.71;74.71;102562.50;5096452;28;20024;-75
2022/01/20 12:42:01;;;;;;;4.00;0.98;;;;;;;4.63;75.07;102568.06;5095321;28;20490;-75
2022/01/20 12:44:54;;;;;;;4.47;0.77;;;;;;;4.51;75.13;102545.09;5092780;28;20043;-75
2022/01/20 12:47:27;;;;;;;10.20;1.85;;;;;;;4.66;74.86;102554.00;5098270;28;20027;-75